createdAt,value
2022-09-30T00:01:48.152Z,4.28
2022-09-30T00:04:22.702Z,1.65
2022-09-30T00:06:52.560Z,3.90
2022-09-30T00:11:49.641Z,5.00
2022-09-30T00:14:21.721Z,1.98
2022-09-30T00:16:49.908Z,2.20
2022-09-30T00:19:17.709Z,0.55
2022-09-30T00:21:45.619Z,5.97
2022-09-30T00:24:13.730Z,6.78
2022-09-30T00:26:41.510Z,2.10
2022-09-30T00:29:11.122Z,0.10
2022-09-30T00:31:39.320Z,0.50
2022-09-30T00:34:07.587Z,4.40
2022-09-30T00:36:40.305Z,2.05
2022-09-30T00:39:11.793Z,1.98
2022-09-30T00:41:39.688Z,3.03
2022-09-30T00:45:03.434Z,3.28
2022-09-30T00:47:42.102Z,9.65
2022-09-30T00:50:16.902Z,2.73
2022-09-30T00:53:31.241Z,0.98
2022-09-30T00:56:22.378Z,3.75
2022-09-30T00:59:16.547Z,6.78
2022-09-30T01:01:44.567Z,3.00
2022-09-30T01:04:22.159Z,6.03
2022-09-30T01:07:09.145Z,11.50
2022-09-30T01:09:40.637Z,1.40
2022-09-30T01:12:18.773Z,1.75
2022-09-30T01:14:53.210Z,0.45
2022-09-30T01:17:59.963Z,2.80
2022-09-30T01:21:18.857Z,8.88
2022-09-30T01:23:58.072Z,4.68
2022-09-30T01:27:05.561Z,3.83
2022-09-30T01:30:15.012Z,4.88
2022-09-30T01:33:09.575Z,0.40
2022-09-30T01:36:01.450Z,3.88
2022-09-30T01:38:43.751Z,2.20
2022-09-30T01:41:35.217Z,2.67
2022-09-30T01:44:25.209Z,4.50
2022-09-30T01:47:39.641Z,0.35
2022-09-30T01:50:21.982Z,5.28
2022-09-30T01:53:08.823Z,0.55
2022-09-30T01:55:45.005Z,1.00
2022-09-30T01:58:20.332Z,2.65
2022-09-30T02:00:53.297Z,0.70
2022-09-30T02:03:36.791Z,4.05
2022-09-30T02:06:20.620Z,0.20
2022-09-30T02:09:03.832Z,0.80
2022-09-30T02:11:38.480Z,1.13
2022-09-30T02:14:34.377Z,3.72
2022-09-30T02:17:29.047Z,4.90
2022-09-30T02:20:12.609Z,0.30
2022-09-30T02:22:52.329Z,1.75
2022-09-30T02:25:35.868Z,1.85
2022-09-30T02:28:08.441Z,0.40
2022-09-30T02:30:41.124Z,4.35
2022-09-30T02:33:17.597Z,4.30
2022-09-30T02:35:57.772Z,1.50
2022-09-30T02:38:37.189Z,0.60
2022-09-30T02:41:22.072Z,2.45
2022-09-30T02:43:52.404Z,3.05
2022-09-30T02:46:35.510Z,0.68
2022-09-30T02:49:22.444Z,3.72
2022-09-30T02:52:36.194Z,2.45
2022-09-30T02:55:38.594Z,3.28
2022-09-30T02:58:19.882Z,3.55
2022-09-30T03:00:49.093Z,0.43
2022-09-30T03:03:22.918Z,0.70
2022-09-30T03:05:51.944Z,1.90
2022-09-30T03:08:19.706Z,2.17
2022-09-30T03:10:51.057Z,1.08
2022-09-30T03:13:29.053Z,1.85
2022-09-30T03:16:22.950Z,3.60
2022-09-30T03:19:09.451Z,7.18
2022-09-30T03:22:10.966Z,0.80
2022-09-30T03:25:18.586Z,3.45
2022-09-30T03:28:00.196Z,0.20
2022-09-30T03:30:30.532Z,2.38
2022-09-30T03:33:24.581Z,2.60
2022-09-30T03:36:14.441Z,1.33
2022-09-30T03:39:06.040Z,1.70
2022-09-30T03:42:10.563Z,1.70
2022-09-30T03:44:59.910Z,9.93
2022-09-30T03:47:31.533Z,1.80
2022-09-30T03:50:07.013Z,0.93
2022-09-30T03:52:36.830Z,5.38
2022-09-30T03:55:08.659Z,0.60
2022-09-30T03:57:36.391Z,4.43
2022-09-30T04:00:06.235Z,0.30
2022-09-30T05:02:31.813Z,1.35
2022-09-30T05:05:00.681Z,4.40
2022-09-30T05:07:28.163Z,2.75
2022-09-30T05:09:55.638Z,2.15
2022-09-30T05:12:23.861Z,4.97
2022-09-30T05:14:51.304Z,2.70
2022-09-30T05:17:18.925Z,3.85
2022-09-30T05:19:46.618Z,3.05
2022-09-30T05:22:15.104Z,2.40
2022-09-30T05:24:42.548Z,5.03
2022-09-30T05:27:10.370Z,1.67
2022-09-30T05:29:37.853Z,6.78
2022-09-30T05:32:06.096Z,0.98
2022-09-30T05:34:34.045Z,0.50
2022-09-30T05:37:01.624Z,4.10
2022-09-30T05:39:29.069Z,5.95
2022-09-30T05:41:58.525Z,4.75
2022-09-30T05:44:26.015Z,6.10
2022-09-30T05:46:53.623Z,7.90
2022-09-30T05:49:22.156Z,12.63
2022-09-30T05:51:49.805Z,5.90
2022-09-30T05:54:17.241Z,2.53
2022-09-30T05:56:45.004Z,2.30
2022-09-30T05:59:12.486Z,3.15
2022-09-30T06:01:40.115Z,2.13
2022-09-30T06:04:07.928Z,2.58
2022-09-30T06:06:35.393Z,4.78
2022-09-30T06:09:03.037Z,6.85
2022-09-30T06:11:31.649Z,14.48
2022-09-30T06:13:59.187Z,10.83
2022-09-30T06:16:26.915Z,7.38
2022-09-30T06:18:55.401Z,8.15
2022-09-30T06:21:23.522Z,2.28
2022-09-30T06:23:51.126Z,1.38
2022-09-30T06:26:18.878Z,4.32
2022-09-30T06:28:46.403Z,5.57
2022-09-30T06:31:14.753Z,5.82
2022-09-30T06:33:43.192Z,4.35
2022-09-30T06:36:10.802Z,4.22
2022-09-30T06:38:40.204Z,7.57
2022-09-30T06:41:08.635Z,4.30
2022-09-30T06:43:46.060Z,4.43
2022-09-30T06:46:30.587Z,1.52
2022-09-30T06:49:13.428Z,3.60
2022-09-30T06:51:42.217Z,4.85
2022-09-30T06:54:10.550Z,3.47
2022-09-30T06:56:38.264Z,4.90
2022-09-30T06:59:06.112Z,3.22
2022-09-30T07:01:33.804Z,3.95
2022-09-30T07:04:08.029Z,5.65
2022-09-30T07:06:35.920Z,9.07
2022-09-30T07:09:03.847Z,3.88
2022-09-30T07:11:31.575Z,12.00
2022-09-30T07:13:59.370Z,2.78
2022-09-30T07:16:27.104Z,3.67
2022-09-30T07:18:55.020Z,5.97
2022-09-30T07:21:22.850Z,2.55
2022-09-30T07:23:52.830Z,6.68
2022-09-30T07:26:23.559Z,8.10
2022-09-30T07:28:52.796Z,8.18
2022-09-30T07:31:33.752Z,3.85
2022-09-30T07:34:09.422Z,4.25
2022-09-30T07:36:40.498Z,4.28
2022-09-30T07:39:11.047Z,6.35
2022-09-30T07:41:40.175Z,5.90
2022-09-30T07:44:14.304Z,2.42
2022-09-30T07:46:44.467Z,3.60
2022-09-30T07:49:24.779Z,9.95
2022-09-30T07:52:03.182Z,5.45
2022-09-30T07:54:38.737Z,4.60
2022-09-30T07:57:11.160Z,5.50
2022-09-30T07:59:41.702Z,6.18
2022-09-30T08:02:18.120Z,13.73
2022-09-30T08:04:46.629Z,4.65
2022-09-30T08:07:16.415Z,15.50
2022-09-30T08:09:44.361Z,7.88
2022-09-30T08:12:11.988Z,2.33
2022-09-30T08:14:39.781Z,4.38
2022-09-30T08:17:07.279Z,2.17
2022-09-30T08:19:35.802Z,8.68
2022-09-30T08:22:04.196Z,5.32
2022-09-30T08:24:32.124Z,4.85
2022-09-30T08:26:59.701Z,2.55
2022-09-30T08:29:54.320Z,7.03
2022-09-30T08:32:15.628Z,5.63
2022-09-30T08:34:43.525Z,2.10
2022-09-30T08:37:10.972Z,2.35
2022-09-30T08:39:39.085Z,6.28
2022-09-30T08:42:39.537Z,5.23
2022-09-30T08:45:19.553Z,6.40
2022-09-30T08:48:05.608Z,4.72
2022-09-30T08:50:50.074Z,4.60
2022-09-30T08:53:31.502Z,2.90
2022-09-30T08:56:02.763Z,6.43
2022-09-30T08:58:39.251Z,3.13
2022-09-30T09:01:48.493Z,7.32
2022-09-30T09:04:18.482Z,10.60
2022-09-30T09:07:19.608Z,6.97
2022-09-30T09:10:32.914Z,6.43
2022-09-30T09:13:37.260Z,13.23
2022-09-30T09:16:28.817Z,2.90
2022-09-30T09:19:11.807Z,7.18
2022-09-30T09:22:02.003Z,9.02
2022-09-30T09:24:46.238Z,7.90
2022-09-30T09:28:00.191Z,6.18
2022-09-30T09:30:43.592Z,5.88
2022-09-30T09:33:22.988Z,5.85
2022-09-30T09:39:06.126Z,13.02
2022-09-30T09:41:56.219Z,5.43
2022-09-30T09:45:12.999Z,3.90
2022-09-30T09:47:45.708Z,4.97
2022-09-30T09:51:05.384Z,4.55
2022-09-30T09:53:53.637Z,4.68
2022-09-30T09:56:31.848Z,4.70
2022-09-30T09:59:20.072Z,3.83
2022-09-30T10:01:54.154Z,5.05
2022-09-30T10:04:33.309Z,6.43
2022-09-30T10:07:13.590Z,9.05
2022-09-30T10:09:43.192Z,5.88
2022-09-30T10:12:13.626Z,6.55
2022-09-30T10:15:12.296Z,4.18
2022-09-30T10:17:40.857Z,5.03
2022-09-30T10:20:31.728Z,4.05
2022-09-30T10:23:23.504Z,5.40
2022-09-30T10:26:14.665Z,3.30
2022-09-30T10:29:06.414Z,1.75
2022-09-30T10:31:40.889Z,0.80
2022-09-30T10:34:35.436Z,1.45
2022-09-30T10:37:23.801Z,2.67
2022-09-30T10:40:01.410Z,2.63
2022-09-30T10:42:40.750Z,0.90
2022-09-30T10:45:37.280Z,3.25
2022-09-30T10:48:16.580Z,2.13
2022-09-30T10:50:53.139Z,2.63
2022-09-30T10:53:30.899Z,0.52
2022-09-30T10:55:59.527Z,0.77
2022-09-30T10:58:48.607Z,0.20
2022-09-30T11:01:48.368Z,3.05
2022-09-30T11:04:24.477Z,1.38
2022-09-30T11:07:19.208Z,1.05
2022-09-30T11:10:08.907Z,5.05
2022-09-30T11:12:48.928Z,0.20
2022-09-30T11:15:45.854Z,1.25
2022-09-30T11:18:34.920Z,0.47
2022-09-30T11:24:14.092Z,8.35
2022-09-30T11:27:06.952Z,3.95
2022-09-30T11:29:40.678Z,2.42
2022-09-30T11:32:55.105Z,2.17
2022-09-30T11:35:42.129Z,1.95
2022-09-30T11:38:46.246Z,4.55
2022-09-30T11:41:13.920Z,3.92
2022-09-30T11:44:21.951Z,2.83
2022-09-30T11:46:52.468Z,3.72
2022-09-30T11:49:25.976Z,1.33
2022-09-30T11:52:18.858Z,1.42
2022-09-30T11:55:23.673Z,2.38
2022-09-30T11:58:22.400Z,1.67
2022-09-30T12:00:59.262Z,0.63
2022-09-30T12:03:40.032Z,2.05
2022-09-30T12:06:22.921Z,2.80
2022-09-30T12:09:01.363Z,1.13
2022-09-30T12:12:08.567Z,2.55
2022-09-30T12:14:53.694Z,1.35
2022-09-30T12:18:10.975Z,0.15
2022-09-30T12:20:54.192Z,2.70
2022-09-30T12:23:39.624Z,2.47
2022-09-30T12:26:07.514Z,0.75
2022-09-30T12:29:04.706Z,2.42
2022-09-30T12:31:41.221Z,3.05
2022-09-30T12:34:48.360Z,3.00
2022-09-30T12:38:03.408Z,0.93
2022-09-30T12:41:35.919Z,0.77
2022-09-30T12:44:52.760Z,1.95
2022-09-30T12:47:38.587Z,0.43
2022-09-30T12:50:09.168Z,2.60
2022-09-30T12:52:38.376Z,0.82
2022-09-30T12:55:31.234Z,2.15
2022-09-30T12:58:01.452Z,1.42
2022-09-30T13:00:36.145Z,3.38
2022-09-30T13:03:15.903Z,0.63
2022-09-30T13:05:47.373Z,1.45
2022-09-30T13:08:36.625Z,4.47
2022-09-30T13:11:08.129Z,3.47
2022-09-30T13:14:43.655Z,3.50
2022-09-30T13:17:11.499Z,2.75
2022-09-30T13:19:51.980Z,3.03
2022-09-30T13:22:39.773Z,4.50
2022-09-30T13:25:16.678Z,0.65
2022-09-30T13:27:55.506Z,2.08
2022-09-30T13:30:24.780Z,4.20
2022-09-30T13:35:37.251Z,4.18
2022-09-30T13:38:21.814Z,0.73
2022-09-30T13:41:22.785Z,5.07
2022-09-30T13:43:53.075Z,1.33
2022-09-30T13:46:43.191Z,9.88
2022-09-30T13:49:35.965Z,3.58
2022-09-30T13:52:16.575Z,8.50
2022-09-30T13:54:47.788Z,7.53
2022-09-30T13:57:23.538Z,6.53
2022-09-30T14:00:18.049Z,7.72
2022-09-30T14:03:32.687Z,3.40
2022-09-30T14:06:16.593Z,3.13
2022-09-30T14:09:13.980Z,9.60
2022-09-30T14:12:17.635Z,3.90
2022-09-30T14:15:37.939Z,13.73
2022-09-30T14:18:33.330Z,8.57
2022-09-30T14:21:34.109Z,6.70
2022-09-30T14:24:17.468Z,9.70
2022-09-30T14:27:28.079Z,5.10
2022-09-30T14:30:26.811Z,7.53
2022-09-30T14:33:09.335Z,7.20
2022-09-30T14:35:41.606Z,10.60
2022-09-30T14:38:18.193Z,8.30
2022-09-30T14:40:55.289Z,20.15
2022-09-30T14:43:40.349Z,8.80
2022-09-30T14:46:40.966Z,6.88
2022-09-30T14:49:16.566Z,5.85
2022-09-30T14:51:49.244Z,10.48
2022-09-30T14:54:26.677Z,11.25
2022-09-30T14:56:55.883Z,7.25
2022-09-30T14:59:27.671Z,14.38
2022-09-30T15:02:03.944Z,17.08
2022-09-30T15:04:38.961Z,20.90
2022-09-30T15:07:11.984Z,12.52
2022-09-30T15:09:46.556Z,11.90
2022-09-30T15:12:19.336Z,5.28
2022-09-30T15:14:54.829Z,7.85
2022-09-30T15:17:36.283Z,12.30
2022-09-30T15:20:32.670Z,5.65
2022-09-30T15:23:09.489Z,13.10
2022-09-30T15:25:37.569Z,13.25
2022-09-30T15:28:09.039Z,8.75
2022-09-30T15:30:36.672Z,11.00
2022-09-30T15:33:06.350Z,14.23
2022-09-30T15:35:34.059Z,14.50
2022-09-30T15:38:16.324Z,14.27
2022-09-30T15:41:09.700Z,5.47
2022-09-30T15:43:52.919Z,9.80
2022-09-30T15:46:26.018Z,13.85
2022-09-30T15:48:59.507Z,15.65
2022-09-30T15:51:33.627Z,13.73
2022-09-30T15:54:33.263Z,18.25
2022-09-30T15:57:04.531Z,18.67
2022-09-30T16:00:06.331Z,21.92
2022-09-30T16:02:35.490Z,20.73
2022-09-30T16:05:05.453Z,13.82
2022-09-30T16:07:33.320Z,9.07
2022-09-30T16:10:01.187Z,11.55
2022-09-30T16:12:36.217Z,17.80
2022-09-30T16:15:15.576Z,22.90
2022-09-30T16:17:50.166Z,13.52
2022-09-30T16:20:17.941Z,8.13
2022-09-30T16:22:45.382Z,13.93
2022-09-30T16:25:34.413Z,13.23
2022-09-30T16:28:14.310Z,10.48
2022-09-30T16:30:46.024Z,5.70
2022-09-30T16:33:15.596Z,8.45
2022-09-30T16:35:44.337Z,9.25
2022-09-30T16:38:18.291Z,13.70
2022-09-30T16:40:46.444Z,17.25
2022-09-30T16:43:14.370Z,15.43
2022-09-30T16:45:42.577Z,21.73
2022-09-30T16:48:19.265Z,9.25
2022-09-30T16:51:04.804Z,12.65
2022-09-30T16:53:32.727Z,15.65
2022-09-30T16:56:00.911Z,13.57
2022-09-30T16:58:28.762Z,11.02
2022-09-30T17:01:00.229Z,7.75
2022-09-30T17:03:28.792Z,12.55
2022-09-30T17:05:57.120Z,8.32
2022-09-30T17:08:24.908Z,10.38
2022-09-30T17:10:52.668Z,10.80
2022-09-30T17:13:20.358Z,7.97
2022-09-30T17:15:52.115Z,8.20
2022-09-30T17:18:20.302Z,11.05
2022-09-30T17:20:52.935Z,15.68
2022-09-30T17:23:25.412Z,11.25
2022-09-30T17:25:54.856Z,11.05
2022-09-30T17:28:23.018Z,9.23
2022-09-30T17:30:50.703Z,14.90
2022-09-30T17:33:21.218Z,8.68
2022-09-30T17:36:00.681Z,7.07
2022-09-30T17:38:29.445Z,9.95
2022-09-30T17:41:16.005Z,10.57
2022-09-30T17:43:45.757Z,5.25
2022-09-30T17:46:18.986Z,13.98
2022-09-30T17:48:47.065Z,5.80
2022-09-30T17:51:18.646Z,6.10
2022-09-30T17:53:47.053Z,3.88
2022-09-30T17:56:22.641Z,10.70
2022-09-30T17:58:51.174Z,4.10
2022-09-30T18:01:21.471Z,5.00
2022-09-30T18:03:53.131Z,12.32
2022-09-30T18:06:39.592Z,9.38
2022-09-30T18:09:07.310Z,8.13
2022-09-30T18:11:54.538Z,4.88
2022-09-30T18:14:22.217Z,1.90
2022-09-30T18:16:49.867Z,4.43
2022-09-30T18:19:17.841Z,3.42
2022-09-30T18:21:46.074Z,4.30
2022-09-30T18:24:13.790Z,1.33
2022-09-30T18:26:41.660Z,1.17
2022-09-30T18:29:09.507Z,3.67
2022-09-30T18:31:38.875Z,2.58
2022-09-30T18:34:25.652Z,10.02
2022-09-30T18:36:53.360Z,3.05
2022-09-30T18:39:21.578Z,3.80
2022-09-30T18:41:49.624Z,3.80
2022-09-30T18:44:17.202Z,7.78
2022-09-30T18:47:05.509Z,2.75
2022-09-30T18:49:33.109Z,3.05
2022-09-30T18:52:01.867Z,6.30
2022-09-30T18:56:57.620Z,4.13
2022-09-30T18:59:26.235Z,10.63
2022-09-30T19:01:55.765Z,5.00
2022-09-30T19:04:23.390Z,3.47
2022-09-30T19:06:51.030Z,6.10
2022-09-30T19:09:20.442Z,4.28
2022-09-30T19:11:49.419Z,4.55
2022-09-30T19:14:17.457Z,5.55
2022-09-30T19:16:47.395Z,3.28
2022-09-30T19:19:16.205Z,3.47
2022-09-30T19:21:44.824Z,4.38
2022-09-30T19:24:12.878Z,2.88
2022-09-30T19:26:41.114Z,3.65
2022-09-30T19:29:11.124Z,4.65
2022-09-30T19:31:39.908Z,1.52
2022-09-30T19:34:11.456Z,2.00
2022-09-30T19:36:49.873Z,4.68
2022-09-30T19:39:19.283Z,1.77
2022-09-30T19:41:47.381Z,9.98
2022-09-30T19:44:19.034Z,7.82
2022-09-30T19:46:54.985Z,4.07
2022-09-30T19:49:23.747Z,6.20
2022-09-30T19:51:52.864Z,6.53
2022-09-30T19:57:08.163Z,9.95
2022-09-30T19:59:36.059Z,8.13
2022-09-30T20:02:04.380Z,5.93
2022-09-30T20:04:34.402Z,7.40
2022-09-30T20:07:02.467Z,4.25
2022-09-30T20:09:30.292Z,10.68
2022-09-30T20:11:58.161Z,8.10
2022-09-30T20:14:44.938Z,12.40
2022-09-30T20:17:12.919Z,9.10
2022-09-30T20:19:40.562Z,4.78
2022-09-30T20:22:08.175Z,6.57
2022-09-30T20:24:37.989Z,4.68
2022-09-30T20:27:06.107Z,2.47
2022-09-30T20:29:34.154Z,7.18
2022-09-30T20:32:03.970Z,7.35
2022-09-30T20:34:34.487Z,7.97
2022-09-30T20:37:06.361Z,8.40
2022-09-30T20:39:34.698Z,8.82
2022-09-30T20:42:02.268Z,7.47
2022-09-30T20:44:30.812Z,7.22
2022-09-30T20:47:00.006Z,5.22
2022-09-30T20:49:28.744Z,7.35
2022-09-30T20:51:56.585Z,6.67
2022-09-30T20:54:24.895Z,4.28
2022-09-30T20:57:06.644Z,7.90
2022-09-30T20:59:35.396Z,3.28
2022-09-30T21:02:02.987Z,9.77
2022-09-30T21:04:31.515Z,3.10
2022-09-30T21:09:37.217Z,6.43
2022-09-30T21:12:13.621Z,3.33
2022-09-30T21:14:43.668Z,8.02
2022-09-30T21:17:11.818Z,7.90
2022-09-30T21:19:40.009Z,3.40
2022-09-30T21:22:08.128Z,7.57
2022-09-30T21:24:40.680Z,1.90
2022-09-30T21:27:12.411Z,4.85
2022-09-30T21:29:43.892Z,8.35
2022-09-30T21:32:11.680Z,7.63
2022-09-30T21:34:40.094Z,7.35
2022-09-30T21:37:09.036Z,5.88
2022-09-30T21:39:38.555Z,7.07
2022-09-30T21:42:07.589Z,10.82
2022-09-30T21:44:35.532Z,3.42
2022-09-30T21:47:03.314Z,4.60
2022-09-30T21:49:30.946Z,4.88
2022-09-30T21:51:58.850Z,7.80
2022-09-30T21:54:27.746Z,3.47
2022-09-30T21:56:55.289Z,10.77
2022-09-30T21:59:25.637Z,8.25
2022-09-30T22:01:53.383Z,5.97
2022-09-30T22:04:21.049Z,6.35
2022-09-30T22:06:49.262Z,4.85
2022-09-30T22:09:16.810Z,7.43
2022-09-30T22:11:44.883Z,12.27
2022-09-30T22:14:12.804Z,9.63
2022-09-30T22:16:40.775Z,7.97
2022-09-30T22:19:09.291Z,8.20
2022-09-30T22:21:38.585Z,3.30
2022-09-30T22:26:37.260Z,4.65
2022-09-30T22:29:13.019Z,4.55
2022-09-30T22:31:41.169Z,1.15
2022-09-30T22:34:32.432Z,1.15
2022-09-30T22:37:18.623Z,6.38
2022-09-30T22:39:46.479Z,3.00
2022-09-30T22:42:14.114Z,8.63
2022-09-30T22:44:41.751Z,1.77
2022-09-30T22:47:11.176Z,5.65
2022-09-30T22:49:38.841Z,3.72
2022-09-30T22:52:06.865Z,1.77
2022-09-30T22:54:36.667Z,2.20
2022-09-30T22:57:05.638Z,2.65
2022-09-30T22:59:33.505Z,4.22
2022-09-30T23:02:01.344Z,8.27
2022-09-30T23:04:29.102Z,5.55
2022-09-30T23:06:56.811Z,2.30
2022-09-30T23:09:25.247Z,1.60
2022-09-30T23:11:56.981Z,2.38
2022-09-30T23:14:25.126Z,2.90
2022-09-30T23:16:52.953Z,6.32
2022-09-30T23:19:21.072Z,7.85
2022-09-30T23:21:48.656Z,0.95
2022-09-30T23:24:16.562Z,0.85
2022-09-30T23:26:44.112Z,8.57
2022-09-30T23:29:14.015Z,2.83
2022-09-30T23:31:42.415Z,1.60
2022-09-30T23:34:10.314Z,2.27
2022-09-30T23:36:38.342Z,1.80
2022-09-30T23:39:20.256Z,7.27
2022-09-30T23:41:49.919Z,6.50
2022-09-30T23:44:18.879Z,3.70
2022-09-30T23:47:08.341Z,1.40
2022-09-30T23:49:36.220Z,0.95
2022-09-30T23:52:12.594Z,3.00
2022-09-30T23:54:44.605Z,5.65
2022-09-30T23:57:12.484Z,2.08
2022-09-30T23:59:40.089Z,4.00
